Time;durP1;ratioP1;P1;durP2;ratioP2;P2;SDS_P1;SDS_P2;PMS_P1;PMS_P2;Temp;Humidity;BMP_temperature;BMP_pressure;BME280_temperature;BME280_humidity;BME280_pressure;Samples;Min_cycle;Max_cycle;Signal;HPM_P1;HPM_P2
2021/10/07 00:00:03;;;;;;;;;;;22.00;56.90;;;;;;5060114;28;19975;-59
2021/10/07 00:02:30;;;;;;;;;;;22.10;57.00;;;;;;5067234;28;20340;-59
2021/10/07 00:04:57;;;;;;;;;;;22.10;57.00;;;;;;5073560;28;19924;-59
2021/10/07 00:07:24;;;;;;;;;;;22.10;57.00;;;;;;5074352;28;19995;-59
2021/10/07 00:09:51;;;;;;;;;;;22.10;57.00;;;;;;5072197;28;19947;-59
2021/10/07 00:12:18;;;;;;;;;;;22.10;57.00;;;;;;5071090;28;20469;-59
2021/10/07 00:14:45;;;;;;;;;;;22.10;57.00;;;;;;5072863;28;19925;-60
2021/10/07 00:17:12;;;;;;;;;;;22.10;57.00;;;;;;5072447;28;19924;-59
2021/10/07 00:19:39;;;;;;;;;;;22.10;56.90;;;;;;5055497;28;19924;-59
2021/10/07 00:22:06;;;;;;;;;;;22.00;56.90;;;;;;5057664;28;20126;-59
2021/10/07 00:24:33;;;;;;;;;;;22.10;56.90;;;;;;5084337;28;19928;-60
2021/10/07 00:27:00;;;;;;;;;;;22.10;56.90;;;;;;5065953;28;19974;-60
2021/10/07 00:32:11;;;;;;;;;;;22.10;56.90;;;;;;5071148;28;20326;-59
2021/10/07 00:37:28;;;;;;;;;;;22.10;56.90;;;;;;5063572;28;19925;-60
2021/10/07 00:39:55;;;;;;;;;;;22.00;56.90;;;;;;5072155;28;19925;-59
2021/10/07 00:42:22;;;;;;;;;;;22.10;56.90;;;;;;5073669;28;19939;-60
2021/10/07 00:44:49;;;;;;;;;;;22.00;56.90;;;;;;5070164;28;19979;-60
2021/10/07 00:47:17;;;;;;;;;;;22.00;56.90;;;;;;5073413;28;19931;-59
2021/10/07 00:49:44;;;;;;;;;;;22.00;56.90;;;;;;5073782;28;20035;-59
2021/10/07 00:52:13;;;;;;;;;;;22.00;56.90;;;;;;5072021;28;19933;-59
2021/10/07 00:54:40;;;;;;;;;;;22.00;56.90;;;;;;5071398;28;19928;-59
2021/10/07 00:57:08;;;;;;;;;;;22.00;56.80;;;;;;5071604;28;19924;-59
2021/10/07 00:59:36;;;;;;;;;;;22.00;56.80;;;;;;5071837;28;19966;-59
2021/10/07 01:02:04;;;;;;;;;;;22.00;56.80;;;;;;5071888;28;19925;-59
2021/10/07 01:04:31;;;;;;;;;;;22.00;56.80;;;;;;5072169;28;19970;-59
2021/10/07 01:06:58;;;;;;;;;;;22.00;56.80;;;;;;5066315;28;20340;-60
2021/10/07 01:09:27;;;;;;;;;;;22.00;56.90;;;;;;5057712;28;19932;-60
2021/10/07 01:11:56;;;;;;;;;;;22.00;56.80;;;;;;5057501;28;19932;-60
2021/10/07 01:14:48;;;;;;;;;;;22.00;56.80;;;;;;5062046;28;19924;-59
2021/10/07 01:17:16;;;;;;;;;;;22.00;56.80;;;;;;5073000;28;19933;-59
2021/10/07 01:19:45;;;;;;;;;;;22.00;56.80;;;;;;5063648;28;20433;-60
2021/10/07 01:22:12;;;;;;;;;;;22.00;56.80;;;;;;5093798;28;20014;-59
2021/10/07 01:24:39;;;;;;;;;;;22.00;56.80;;;;;;5059872;28;20327;-60
2021/10/07 01:27:07;;;;;;;;;;;22.00;56.70;;;;;;5060458;28;20036;-59
2021/10/07 01:29:34;;;;;;;;;;;22.00;56.80;;;;;;5091610;28;19967;-59
2021/10/07 01:32:02;;;;;;;;;;;22.00;56.80;;;;;;5065556;28;19925;-60
2021/10/07 01:34:30;;;;;;;;;;;22.00;56.70;;;;;;5083006;28;19939;-59
2021/10/07 01:36:57;;;;;;;;;;;22.00;56.80;;;;;;5072702;28;19972;-60
2021/10/07 01:39:25;;;;;;;;;;;22.00;56.80;;;;;;5066518;28;20319;-59
2021/10/07 01:41:52;;;;;;;;;;;22.00;56.70;;;;;;5075392;28;19924;-59
2021/10/07 01:44:20;;;;;;;;;;;22.00;56.80;;;;;;5071808;28;20425;-60
2021/10/07 01:46:48;;;;;;;;;;;22.00;56.80;;;;;;5060299;28;20352;-59
2021/10/07 01:49:15;;;;;;;;;;;22.00;56.80;;;;;;5058271;28;20429;-59
2021/10/07 01:51:42;;;;;;;;;;;22.00;56.80;;;;;;5057824;28;19925;-59
2021/10/07 01:54:10;;;;;;;;;;;22.00;56.80;;;;;;5092429;28;19928;-59
2021/10/07 01:56:37;;;;;;;;;;;22.00;56.80;;;;;;5059278;28;20014;-59
2021/10/07 01:59:05;;;;;;;;;;;22.00;56.80;;;;;;5089147;28;19924;-58
2021/10/07 02:01:33;;;;;;;;;;;22.00;56.80;;;;;;5066832;28;19978;-59
2021/10/07 02:04:01;;;;;;;;;;;22.00;56.70;;;;;;5059819;28;20008;-59
2021/10/07 02:06:28;;;;;;;;;;;22.00;56.70;;;;;;5067734;28;19924;-58
2021/10/07 02:08:55;;;;;;;;;;;22.00;56.70;;;;;;5076573;28;20022;-59
2021/10/07 02:11:23;;;;;;;;;;;22.00;56.80;;;;;;5077544;28;19992;-61
2021/10/07 02:13:51;;;;;;;;;;;22.00;56.70;;;;;;5074250;28;19925;-59
2021/10/07 02:16:18;;;;;;;;;;;22.00;56.70;;;;;;5059605;28;20296;-60
2021/10/07 02:18:45;;;;;;;;;;;22.00;56.70;;;;;;5058911;28;19925;-59
2021/10/07 02:21:15;;;;;;;;;;;22.00;56.70;;;;;;5057276;28;19932;-58
2021/10/07 02:23:42;;;;;;;;;;;22.00;56.70;;;;;;5073513;28;20464;-59
2021/10/07 02:26:09;;;;;;;;;;;22.00;56.70;;;;;;5073022;28;19958;-58
2021/10/07 02:28:36;;;;;;;;;;;22.00;56.70;;;;;;5074960;28;20158;-58
2021/10/07 02:31:03;;;;;;;;;;;22.00;56.70;;;;;;5065753;28;20368;-59
2021/10/07 02:33:30;;;;;;;;;;;22.00;56.70;;;;;;5066400;28;19925;-59
2021/10/07 02:35:57;;;;;;;;;;;22.00;56.70;;;;;;5074821;28;19924;-59
2021/10/07 02:38:24;;;;;;;;;;;22.00;56.70;;;;;;5074568;28;19924;-60
2021/10/07 02:40:51;;;;;;;;;;;22.00;56.70;;;;;;5074507;28;19925;-58
2021/10/07 02:43:18;;;;;;;;;;;22.00;56.70;;;;;;5073073;28;19974;-59
2021/10/07 02:45:45;;;;;;;;;;;22.00;56.70;;;;;;5057194;28;20351;-59
2021/10/07 02:48:12;;;;;;;;;;;22.00;56.70;;;;;;5073304;28;19925;-58
2021/10/07 02:50:39;;;;;;;;;;;22.00;56.70;;;;;;5075719;28;19977;-58
2021/10/07 02:53:06;;;;;;;;;;;22.00;56.70;;;;;;5075488;28;19925;-58
2021/10/07 02:55:33;;;;;;;;;;;22.00;56.60;;;;;;5073745;28;19925;-59
2021/10/07 02:58:00;;;;;;;;;;;22.00;56.60;;;;;;5075101;28;19986;-59
2021/10/07 03:00:28;;;;;;;;;;;22.00;56.60;;;;;;5072858;28;19930;-59
2021/10/07 03:02:55;;;;;;;;;;;22.00;56.70;;;;;;5075258;28;19990;-59
2021/10/07 03:05:22;;;;;;;;;;;22.00;56.60;;;;;;5077821;28;20006;-59
2021/10/07 03:07:49;;;;;;;;;;;22.00;56.70;;;;;;5087943;28;19932;-60
2021/10/07 03:10:16;;;;;;;;;;;22.00;56.70;;;;;;5075164;28;19925;-60
2021/10/07 03:12:43;;;;;;;;;;;22.00;56.70;;;;;;5074114;28;19978;-59
2021/10/07 03:15:13;;;;;;;;;;;22.00;56.70;;;;;;5055924;28;19924;-59
2021/10/07 03:17:40;;;;;;;;;;;22.00;56.70;;;;;;5057871;28;19979;-59
2021/10/07 03:20:07;;;;;;;;;;;22.00;56.60;;;;;;5103975;28;19976;-60
2021/10/07 03:22:34;;;;;;;;;;;22.00;56.60;;;;;;5061222;28;19932;-59
2021/10/07 03:25:02;;;;;;;;;;;22.00;56.60;;;;;;5078274;28;20399;-60
2021/10/07 03:27:29;;;;;;;;;;;22.00;56.50;;;;;;5082174;28;19928;-59
2021/10/07 03:29:56;;;;;;;;;;;22.00;56.60;;;;;;5074482;28;19954;-60
2021/10/07 03:32:22;;;;;;;;;;;22.00;56.60;;;;;;5069350;28;19972;-60
2021/10/07 03:34:49;;;;;;;;;;;22.00;56.50;;;;;;5061216;28;20027;-59
2021/10/07 03:37:16;;;;;;;;;;;22.00;56.50;;;;;;5073498;28;19974;-59
2021/10/07 03:39:43;;;;;;;;;;;22.00;56.60;;;;;;5091310;28;19924;-59
2021/10/07 03:42:10;;;;;;;;;;;22.00;56.60;;;;;;5055651;28;19960;-59
2021/10/07 03:44:37;;;;;;;;;;;22.00;56.60;;;;;;5073591;28;19993;-60
2021/10/07 03:47:04;;;;;;;;;;;22.00;56.50;;;;;;5074290;28;19955;-60
2021/10/07 03:49:31;;;;;;;;;;;22.00;56.50;;;;;;5073114;28;20018;-59
2021/10/07 03:51:58;;;;;;;;;;;22.00;56.50;;;;;;5073246;28;20386;-59
2021/10/07 03:54:25;;;;;;;;;;;22.00;56.50;;;;;;5071806;28;19931;-60
2021/10/07 03:56:52;;;;;;;;;;;22.00;56.50;;;;;;5066758;28;19925;-58
2021/10/07 03:59:19;;;;;;;;;;;22.00;56.50;;;;;;5060794;28;19924;-59
2021/10/07 04:01:46;;;;;;;;;;;22.00;56.50;;;;;;5071376;28;19924;-60
2021/10/07 04:04:13;;;;;;;;;;;22.00;56.50;;;;;;5056923;28;19946;-60
2021/10/07 04:06:40;;;;;;;;;;;22.00;56.50;;;;;;5074625;28;19999;-59
2021/10/07 04:09:07;;;;;;;;;;;22.00;56.50;;;;;;5055617;28;19968;-60
2021/10/07 04:11:34;;;;;;;;;;;22.00;56.50;;;;;;5071519;28;19931;-59
2021/10/07 04:14:01;;;;;;;;;;;22.00;56.50;;;;;;5059408;28;19929;-60
2021/10/07 04:16:28;;;;;;;;;;;22.00;56.50;;;;;;5068282;28;20011;-60
2021/10/07 04:18:55;;;;;;;;;;;22.00;56.50;;;;;;5069939;28;19924;-60
2021/10/07 04:21:24;;;;;;;;;;;22.00;56.50;;;;;;5073921;28;20051;-59
2021/10/07 04:23:51;;;;;;;;;;;22.00;56.50;;;;;;5073748;28;19931;-59
2021/10/07 04:26:18;;;;;;;;;;;22.00;56.50;;;;;;5073449;28;20346;-59
2021/10/07 04:28:45;;;;;;;;;;;22.00;56.50;;;;;;5072755;28;20294;-60
2021/10/07 04:31:12;;;;;;;;;;;22.00;56.50;;;;;;5056482;28;20055;-59
2021/10/07 04:33:39;;;;;;;;;;;22.00;57.10;;;;;;5073943;28;19924;-59
2021/10/07 04:36:05;;;;;;;;;;;22.00;56.50;;;;;;5072466;28;19977;-60
2021/10/07 04:38:32;;;;;;;;;;;22.00;56.50;;;;;;5057154;28;19964;-58
2021/10/07 04:40:59;;;;;;;;;;;22.00;56.50;;;;;;5071412;28;19975;-59
2021/10/07 04:43:26;;;;;;;;;;;22.00;57.10;;;;;;5083055;28;19967;-59
2021/10/07 04:45:53;;;;;;;;;;;22.00;56.50;;;;;;5070925;28;19964;-59
2021/10/07 04:48:20;;;;;;;;;;;22.00;56.50;;;;;;5070017;28;19932;-59
2021/10/07 04:50:47;;;;;;;;;;;22.00;56.50;;;;;;5081516;28;20320;-59
2021/10/07 04:53:14;;;;;;;;;;;22.00;56.50;;;;;;5070682;28;20027;-59
2021/10/07 04:55:41;;;;;;;;;;;22.00;56.50;;;;;;5058214;28;19925;-60
2021/10/07 04:58:08;;;;;;;;;;;22.00;56.60;;;;;;5071902;28;19925;-59
2021/10/07 05:00:35;;;;;;;;;;;22.00;56.60;;;;;;5054631;28;19931;-59
2021/10/07 05:03:02;;;;;;;;;;;22.00;56.60;;;;;;5072122;28;19964;-59
2021/10/07 05:05:29;;;;;;;;;;;22.00;56.60;;;;;;5073235;28;19924;-59
2021/10/07 05:07:56;;;;;;;;;;;22.00;56.60;;;;;;5071806;28;19925;-60
2021/10/07 05:10:24;;;;;;;;;;;22.00;56.60;;;;;;5072283;28;19928;-59
2021/10/07 05:12:51;;;;;;;;;;;22.00;56.60;;;;;;5064405;28;19971;-58
2021/10/07 05:15:21;;;;;;;;;;;22.00;56.60;;;;;;5065166;28;19940;-59
2021/10/07 05:17:48;;;;;;;;;;;22.00;56.60;;;;;;5072172;28;19978;-60
2021/10/07 05:20:15;;;;;;;;;;;22.00;56.60;;;;;;5070436;28;19932;-59
2021/10/07 05:22:42;;;;;;;;;;;22.00;56.60;;;;;;5072631;28;19924;-59
2021/10/07 05:25:09;;;;;;;;;;;22.00;56.50;;;;;;5071638;28;20003;-59
2021/10/07 05:27:36;;;;;;;;;;;22.00;56.60;;;;;;5071670;28;19960;-58
2021/10/07 05:30:04;;;;;;;;;;;22.00;56.60;;;;;;5069778;28;19939;-60
2021/10/07 05:32:31;;;;;;;;;;;22.00;56.60;;;;;;5071456;28;19982;-59
2021/10/07 05:34:59;;;;;;;;;;;22.00;56.60;;;;;;5072048;28;19929;-61
2021/10/07 05:37:27;;;;;;;;;;;22.00;56.50;;;;;;5070621;28;20007;-60
2021/10/07 05:39:54;;;;;;;;;;;22.00;56.50;;;;;;5070140;28;19932;-59
2021/10/07 05:42:21;;;;;;;;;;;22.00;56.50;;;;;;5071527;28;19932;-57
2021/10/07 05:44:48;;;;;;;;;;;22.00;56.50;;;;;;5067967;28;19968;-59
2021/10/07 05:47:15;;;;;;;;;;;22.00;56.50;;;;;;5056421;28;19937;-59
2021/10/07 05:49:42;;;;;;;;;;;22.00;56.50;;;;;;5086180;28;19969;-59
2021/10/07 05:52:09;;;;;;;;;;;22.00;56.60;;;;;;5071340;28;19972;-60
2021/10/07 05:54:36;;;;;;;;;;;22.00;56.50;;;;;;5054172;28;19972;-59
2021/10/07 05:57:04;;;;;;;;;;;22.00;56.50;;;;;;5069357;28;19924;-59
2021/10/07 05:59:32;;;;;;;;;;;22.00;56.60;;;;;;5059595;28;19925;-60
2021/10/07 06:01:59;;;;;;;;;;;22.00;56.60;;;;;;5059645;28;19924;-59
2021/10/07 06:04:26;;;;;;;;;;;22.00;56.50;;;;;;5071819;28;20380;-58
2021/10/07 06:06:53;;;;;;;;;;;22.00;56.50;;;;;;5076085;28;19928;-59
2021/10/07 06:09:20;;;;;;;;;;;22.00;56.50;;;;;;5068045;28;19925;-59
2021/10/07 06:11:47;;;;;;;;;;;22.00;56.50;;;;;;5064797;28;19928;-58
2021/10/07 06:14:14;;;;;;;;;;;22.00;56.50;;;;;;5072238;28;19959;-59
2021/10/07 06:16:41;;;;;;;;;;;22.00;56.50;;;;;;5061442;28;20391;-59
2021/10/07 06:19:11;;;;;;;;;;;22.00;56.60;;;;;;5090320;28;19978;-60
2021/10/07 06:21:39;;;;;;;;;;;22.00;56.50;;;;;;5057959;28;20406;-59
2021/10/07 06:24:06;;;;;;;;;;;22.00;56.50;;;;;;5073400;28;19960;-59
2021/10/07 06:26:38;;;;;;;;;;;22.00;56.50;;;;;;5072692;28;20018;-59
2021/10/07 06:29:05;;;;;;;;;;;22.00;56.60;;;;;;5074380;28;20376;-59
2021/10/07 06:31:32;;;;;;;;;;;22.00;56.60;;;;;;5064162;28;19924;-58
2021/10/07 06:33:59;;;;;;;;;;;22.00;56.60;;;;;;5060279;28;20442;-58
2021/10/07 06:36:26;;;;;;;;;;;22.00;56.50;;;;;;5066651;28;19955;-59
2021/10/07 06:38:53;;;;;;;;;;;22.00;56.50;;;;;;5069998;28;19955;-59
2021/10/07 06:41:22;;;;;;;;;;;22.00;56.50;;;;;;5062879;28;20012;-59
2021/10/07 06:43:49;;;;;;;;;;;22.00;56.50;;;;;;5075395;28;20324;-59
2021/10/07 06:46:16;;;;;;;;;;;22.00;56.50;;;;;;5074715;28;19932;-58
2021/10/07 06:48:43;;;;;;;;;;;22.00;56.50;;;;;;5057761;28;19932;-59
2021/10/07 06:51:10;;;;;;;;;;;22.00;56.50;;;;;;5057104;28;20343;-59
2021/10/07 06:53:37;;;;;;;;;;;22.00;56.50;;;;;;5073929;28;19929;-59
2021/10/07 06:56:05;;;;;;;;;;;22.00;56.50;;;;;;5073423;28;19946;-59
2021/10/07 06:58:32;;;;;;;;;;;22.00;56.40;;;;;;5085738;28;19954;-58
2021/10/07 07:00:59;;;;;;;;;;;22.00;56.40;;;;;;5080018;28;19924;-58
2021/10/07 07:03:26;;;;;;;;;;;22.00;56.50;;;;;;5075282;28;19925;-59
2021/10/07 07:05:53;;;;;;;;;;;22.00;56.40;;;;;;5072955;28;20319;-59
2021/10/07 07:08:20;;;;;;;;;;;22.00;56.40;;;;;;5075701;28;20283;-59
2021/10/07 07:10:47;;;;;;;;;;;22.00;56.40;;;;;;5074597;28;19925;-59
2021/10/07 07:13:16;;;;;;;;;;;22.00;56.40;;;;;;5073150;28;19933;-59
2021/10/07 07:15:43;;;;;;;;;;;22.00;56.40;;;;;;5075677;28;19924;-57
2021/10/07 07:18:10;;;;;;;;;;;22.00;56.40;;;;;;5071637;28;19955;-59
2021/10/07 07:20:37;;;;;;;;;;;22.00;56.40;;;;;;5075064;28;19986;-58
2021/10/07 07:23:10;;;;;;;;;;;22.00;56.40;;;;;;5073733;28;19950;-59
2021/10/07 07:25:38;;;;;;;;;;;22.00;56.40;;;;;;5072392;28;20346;-58
2021/10/07 07:28:04;;;;;;;;;;;22.00;57.00;;;;;;5072245;28;19979;-59
2021/10/07 07:30:32;;;;;;;;;;;22.00;56.40;;;;;;5073398;28;19974;-59
2021/10/07 07:32:59;;;;;;;;;;;22.00;56.40;;;;;;5073095;28;19929;-58
2021/10/07 07:35:29;;;;;;;;;;;22.00;56.40;;;;;;5073219;28;20265;-58
2021/10/07 07:38:00;;;;;;;;;;;22.00;56.40;;;;;;5072077;28;20246;-59
2021/10/07 07:40:28;;;;;;;;;;;22.00;56.40;;;;;;5058010;28;19924;-58
2021/10/07 07:42:55;;;;;;;;;;;22.00;56.30;;;;;;5058555;28;20375;-57
2021/10/07 07:45:22;;;;;;;;;;;22.00;56.30;;;;;;5056852;28;19971;-55
2021/10/07 07:47:54;;;;;;;;;;;22.00;56.30;;;;;;5056200;28;19925;-59
2021/10/07 07:50:24;;;;;;;;;;;22.00;56.30;;;;;;5072971;28;19974;-59
2021/10/07 07:52:52;;;;;;;;;;;22.00;56.30;;;;;;5074106;28;19931;-59
2021/10/07 07:55:21;;;;;;;;;;;22.00;56.30;;;;;;5073914;28;20556;-59
2021/10/07 07:57:48;;;;;;;;;;;22.00;56.30;;;;;;5083286;28;20471;-59
2021/10/07 08:00:15;;;;;;;;;;;22.00;56.30;;;;;;5070719;28;19928;-58
2021/10/07 08:02:42;;;;;;;;;;;22.00;56.20;;;;;;5065225;28;19924;-59
2021/10/07 08:05:10;;;;;;;;;;;22.00;56.20;;;;;;5071550;28;19925;-59
2021/10/07 08:07:38;;;;;;;;;;;22.00;56.20;;;;;;5069902;28;20459;-58
2021/10/07 08:10:05;;;;;;;;;;;22.00;56.20;;;;;;5057247;28;19979;-60
2021/10/07 08:12:35;;;;;;;;;;;22.00;56.20;;;;;;5057456;28;20388;-60
2021/10/07 08:15:03;;;;;;;;;;;22.00;56.20;;;;;;5071765;28;20399;-58
2021/10/07 08:17:30;;;;;;;;;;;22.00;56.20;;;;;;5055271;28;19970;-58
2021/10/07 08:19:58;;;;;;;;;;;22.00;56.20;;;;;;5073980;28;19931;-58
2021/10/07 08:22:25;;;;;;;;;;;22.00;56.30;;;;;;5058500;28;20320;-58
2021/10/07 08:24:52;;;;;;;;;;;22.00;56.30;;;;;;5079599;28;19924;-57
2021/10/07 08:27:19;;;;;;;;;;;22.00;56.30;;;;;;5069095;28;19925;-58
2021/10/07 08:29:47;;;;;;;;;;;22.00;56.30;;;;;;5064273;28;19996;-58
2021/10/07 08:32:13;;;;;;;;;;;22.00;56.30;;;;;;5070968;28;19966;-58
2021/10/07 08:34:40;;;;;;;;;;;22.00;56.30;;;;;;5069423;28;19928;-58
2021/10/07 08:37:07;;;;;;;;;;;22.00;56.30;;;;;;5059720;28;20417;-58
2021/10/07 08:39:34;;;;;;;;;;;22.00;56.30;;;;;;5056077;28;19978;-58
2021/10/07 08:42:01;;;;;;;;;;;22.00;56.30;;;;;;5072576;28;19925;-60
2021/10/07 08:44:29;;;;;;;;;;;22.00;56.30;;;;;;5072646;28;20002;-57
2021/10/07 08:46:57;;;;;;;;;;;22.00;56.30;;;;;;5088911;28;19971;-58
2021/10/07 08:49:26;;;;;;;;;;;22.00;56.30;;;;;;5062628;28;20311;-58
2021/10/07 08:51:54;;;;;;;;;;;22.00;56.30;;;;;;5068123;28;19970;-59
2021/10/07 08:54:21;;;;;;;;;;;22.00;56.30;;;;;;5073493;28;20024;-58
2021/10/07 08:56:49;;;;;;;;;;;22.00;56.30;;;;;;5071723;28;19932;-58
2021/10/07 08:59:18;;;;;;;;;;;22.00;56.30;;;;;;5072259;28;19924;-59
2021/10/07 09:01:47;;;;;;;;;;;22.00;56.30;;;;;;5071582;28;20327;-57
2021/10/07 09:04:25;;;;;;;;;;;22.00;56.30;;;;;;5074714;28;20383;-59
2021/10/07 09:07:03;;;;;;;;;;;22.00;56.30;;;;;;5075280;28;19947;-59
2021/10/07 09:09:32;;;;;;;;;;;22.00;56.30;;;;;;5070531;28;19925;-58
2021/10/07 09:12:00;;;;;;;;;;;22.00;56.30;;;;;;5073358;28;19973;-59
2021/10/07 09:14:31;;;;;;;;;;;22.00;56.30;;;;;;5073916;28;19960;-59
2021/10/07 09:16:59;;;;;;;;;;;22.00;56.30;;;;;;5071977;28;19928;-59
2021/10/07 09:19:30;;;;;;;;;;;22.00;56.30;;;;;;5070845;28;19963;-59
2021/10/07 09:21:59;;;;;;;;;;;22.00;56.20;;;;;;5057184;28;19925;-59
2021/10/07 09:24:27;;;;;;;;;;;22.00;56.30;;;;;;5070258;28;19925;-58
2021/10/07 09:26:58;;;;;;;;;;;22.00;56.20;;;;;;5071900;28;19964;-58
2021/10/07 09:29:33;;;;;;;;;;;22.10;56.30;;;;;;5073101;28;20066;-58
2021/10/07 09:32:00;;;;;;;;;;;22.00;56.20;;;;;;5071900;28;20276;-59
2021/10/07 09:34:37;;;;;;;;;;;22.00;56.20;;;;;;5075425;28;19924;-59
2021/10/07 09:37:15;;;;;;;;;;;22.00;56.20;;;;;;5075676;28;19925;-57
2021/10/07 09:39:46;;;;;;;;;;;22.00;56.20;;;;;;5076812;28;19978;-58
2021/10/07 09:42:18;;;;;;;;;;;22.10;56.30;;;;;;5076783;28;19970;-58
2021/10/07 09:45:02;;;;;;;;;;;22.10;56.30;;;;;;5074174;28;19932;-59
2021/10/07 09:47:30;;;;;;;;;;;22.00;56.20;;;;;;5074326;28;19967;-59
2021/10/07 09:50:11;;;;;;;;;;;22.00;56.30;;;;;;5075492;28;20003;-60
2021/10/07 09:52:39;;;;;;;;;;;22.00;56.30;;;;;;5075115;28;19925;-59
2021/10/07 09:55:22;;;;;;;;;;;22.00;56.30;;;;;;5059766;28;19951;-58
2021/10/07 09:57:49;;;;;;;;;;;22.00;56.30;;;;;;5060541;28;19985;-60
2021/10/07 10:00:17;;;;;;;;;;;22.00;56.30;;;;;;5075964;28;19959;-59
2021/10/07 10:02:44;;;;;;;;;;;22.00;56.20;;;;;;5075336;28;20386;-59
2021/10/07 10:05:14;;;;;;;;;;;22.00;56.20;;;;;;5073873;28;19924;-58
2021/10/07 10:07:42;;;;;;;;;;;22.00;56.30;;;;;;5075147;28;19990;-59
2021/10/07 10:10:10;;;;;;;;;;;22.00;56.30;;;;;;5063781;28;19976;-58
2021/10/07 10:12:37;;;;;;;;;;;22.00;56.20;;;;;;5059390;28;19979;-58
2021/10/07 10:15:05;;;;;;;;;;;22.00;56.30;;;;;;5073628;28;19924;-58
2021/10/07 10:17:33;;;;;;;;;;;22.00;56.30;;;;;;5084721;28;20392;-60
2021/10/07 10:20:00;;;;;;;;;;;22.00;56.30;;;;;;5077887;28;20516;-59
2021/10/07 10:22:28;;;;;;;;;;;22.00;56.30;;;;;;5089196;28;19967;-59
2021/10/07 10:24:57;;;;;;;;;;;22.00;56.30;;;;;;5074611;28;20020;-57
2021/10/07 10:27:24;;;;;;;;;;;22.00;56.30;;;;;;5058220;28;19964;-59
2021/10/07 10:30:09;;;;;;;;;;;22.00;56.30;;;;;;5067839;28;19925;-60
2021/10/07 10:32:39;;;;;;;;;;;22.00;56.30;;;;;;5056208;28;19928;-57
2021/10/07 10:35:26;;;;;;;;;;;22.00;56.30;;;;;;5075013;28;19924;-60
2021/10/07 10:37:57;;;;;;;;;;;22.00;56.20;;;;;;5057277;28;19978;-59
2021/10/07 10:40:25;;;;;;;;;;;22.00;56.30;;;;;;5073593;28;20399;-59
2021/10/07 10:43:13;;;;;;;;;;;22.00;56.20;;;;;;5074574;28;20345;-59
2021/10/07 10:45:45;;;;;;;;;;;22.00;56.20;;;;;;5084045;28;20031;-58
2021/10/07 10:48:11;;;;;;;;;;;22.00;56.90;;;;;;5075296;28;19935;-60
2021/10/07 10:50:38;;;;;;;;;;;22.00;56.20;;;;;;5063317;28;19976;-60
2021/10/07 10:53:26;;;;;;;;;;;22.00;56.20;;;;;;5060211;28;20004;-59
2021/10/07 10:55:53;;;;;;;;;;;22.00;56.20;;;;;;5070451;28;19925;-59
2021/10/07 10:58:19;;;;;;;;;;;22.00;56.20;;;;;;5066305;28;19979;-60
2021/10/07 11:00:48;;;;;;;;;;;22.00;56.20;;;;;;5064715;28;19925;-59
2021/10/07 11:03:17;;;;;;;;;;;22.00;56.20;;;;;;5073743;28;19982;-58
2021/10/07 11:05:56;;;;;;;;;;;22.00;56.20;;;;;;5074101;28;20324;-60
2021/10/07 11:08:24;;;;;;;;;;;22.00;56.20;;;;;;5072357;28;20387;-59
2021/10/07 11:11:21;;;;;;;;;;;22.10;56.30;;;;;;5061928;28;19974;-59
2021/10/07 11:13:49;;;;;;;;;;;22.00;56.20;;;;;;5072508;28;20319;-60
2021/10/07 11:16:17;;;;;;;;;;;22.00;56.20;;;;;;5059302;28;20015;-58
2021/10/07 11:18:45;;;;;;;;;;;22.00;56.20;;;;;;5072291;28;19971;-59
2021/10/07 11:21:17;;;;;;;;;;;22.00;56.20;;;;;;5056429;28;19925;-59
2021/10/07 11:23:46;;;;;;;;;;;22.00;56.20;;;;;;5073113;28;19924;-59
2021/10/07 11:26:13;;;;;;;;;;;22.00;56.20;;;;;;5069972;28;19978;-59
2021/10/07 11:28:41;;;;;;;;;;;22.00;56.20;;;;;;5060458;28;20412;-59
2021/10/07 11:31:13;;;;;;;;;;;22.00;56.20;;;;;;5059528;28;20020;-59
2021/10/07 11:33:41;;;;;;;;;;;22.00;56.20;;;;;;5059305;28;20428;-58
2021/10/07 11:36:09;;;;;;;;;;;22.00;56.20;;;;;;5100193;27;19928;-56
2021/10/07 11:38:37;;;;;;;;;;;22.00;56.20;;;;;;5073123;28;19974;-59
2021/10/07 11:41:04;;;;;;;;;;;22.00;56.20;;;;;;5078214;28;19924;-59
2021/10/07 11:43:32;;;;;;;;;;;22.00;56.20;;;;;;5088260;28;19982;-58
2021/10/07 11:46:00;;;;;;;;;;;22.00;56.20;;;;;;5074677;28;19924;-58
2021/10/07 11:48:27;;;;;;;;;;;22.00;56.20;;;;;;5074536;28;19924;-58
2021/10/07 11:50:56;;;;;;;;;;;22.00;56.10;;;;;;5073109;28;20027;-58
2021/10/07 11:53:30;;;;;;;;;;;22.00;56.10;;;;;;5072302;28;20015;-58
2021/10/07 11:55:58;;;;;;;;;;;22.00;56.10;;;;;;5073595;28;20419;-59
2021/10/07 11:58:26;;;;;;;;;;;22.00;56.10;;;;;;5072946;28;20373;-59
2021/10/07 12:00:54;;;;;;;;;;;22.00;56.10;;;;;;5061606;28;19925;-60
2021/10/07 12:03:28;;;;;;;;;;;22.00;56.10;;;;;;5068429;28;20011;-59
2021/10/07 12:05:57;;;;;;;;;;;22.00;56.10;;;;;;5071302;28;19924;-59
2021/10/07 12:08:26;;;;;;;;;;;22.00;56.10;;;;;;5073924;28;19929;-59
2021/10/07 12:10:54;;;;;;;;;;;22.00;56.00;;;;;;5074163;28;19924;-60
2021/10/07 12:13:23;;;;;;;;;;;22.00;56.10;;;;;;5071784;28;19963;-59
2021/10/07 12:15:57;;;;;;;;;;;22.00;56.10;;;;;;5071724;28;19986;-59
2021/10/07 12:18:25;;;;;;;;;;;22.00;56.10;;;;;;5057052;28;20011;-59
2021/10/07 12:20:57;;;;;;;;;;;22.00;56.10;;;;;;5055588;28;19924;-60
2021/10/07 12:23:24;;;;;;;;;;;22.00;56.10;;;;;;5071946;28;19931;-60
2021/10/07 12:25:56;;;;;;;;;;;22.00;56.00;;;;;;5070599;28;20018;-58
2021/10/07 12:28:24;;;;;;;;;;;22.00;56.00;;;;;;5070086;28;20376;-60
2021/10/07 12:30:56;;;;;;;;;;;22.00;56.10;;;;;;5071377;28;20327;-59
2021/10/07 12:33:27;;;;;;;;;;;22.00;56.00;;;;;;5072134;28;20425;-59
2021/10/07 12:35:59;;;;;;;;;;;22.00;56.00;;;;;;5072227;28;19925;-58
2021/10/07 12:38:26;;;;;;;;;;;22.00;56.00;;;;;;5071380;28;19960;-59
2021/10/07 12:40:58;;;;;;;;;;;22.00;56.00;;;;;;5072338;28;19960;-59
2021/10/07 12:43:26;;;;;;;;;;;22.00;56.00;;;;;;5073911;28;20065;-58
2021/10/07 12:46:03;;;;;;;;;;;22.00;56.00;;;;;;5070705;28;19932;-60
2021/10/07 12:48:47;;;;;;;;;;;22.00;56.10;;;;;;5072340;28;20011;-59
2021/10/07 12:51:14;;;;;;;;;;;22.00;56.10;;;;;;5073289;28;20453;-58
2021/10/07 12:53:45;;;;;;;;;;;22.00;56.10;;;;;;5071782;28;19974;-59
2021/10/07 12:56:13;;;;;;;;;;;22.00;56.00;;;;;;5071890;28;20273;-59
2021/10/07 12:58:48;;;;;;;;;;;22.00;56.00;;;;;;5073465;28;19968;-59
2021/10/07 13:01:16;;;;;;;;;;;22.00;56.00;;;;;;5054846;28;19951;-59
2021/10/07 13:03:43;;;;;;;;;;;22.00;56.00;;;;;;5072560;28;19956;-59
2021/10/07 13:06:29;;;;;;;;;;;22.00;56.10;;;;;;5073176;28;19936;-60
2021/10/07 13:08:57;;;;;;;;;;;22.00;56.00;;;;;;5055594;28;20365;-59
2021/10/07 13:11:24;;;;;;;;;;;22.00;56.00;;;;;;5070408;28;19948;-59
2021/10/07 13:13:51;;;;;;;;;;;22.00;56.00;;;;;;5071598;28;19928;-60
2021/10/07 13:16:18;;;;;;;;;;;22.00;56.00;;;;;;5072313;28;19924;-60
2021/10/07 13:18:46;;;;;;;;;;;22.00;56.00;;;;;;5059413;28;20035;-59
2021/10/07 13:21:12;;;;;;;;;;;22.00;56.00;;;;;;5063760;28;19925;-59
2021/10/07 13:23:39;;;;;;;;;;;22.00;56.00;;;;;;5069245;28;19932;-60
2021/10/07 13:26:09;;;;;;;;;;;22.00;56.00;;;;;;5059047;28;19924;-59
2021/10/07 13:28:40;;;;;;;;;;;22.00;56.00;;;;;;5073476;28;19931;-59
2021/10/07 13:31:08;;;;;;;;;;;22.00;56.00;;;;;;5055337;28;19977;-59
2021/10/07 13:33:35;;;;;;;;;;;22.00;56.00;;;;;;5071796;28;19931;-59
2021/10/07 13:36:03;;;;;;;;;;;22.00;56.00;;;;;;5054027;28;19983;-57
2021/10/07 13:38:30;;;;;;;;;;;22.00;56.00;;;;;;5056460;28;19960;-59
2021/10/07 13:41:01;;;;;;;;;;;22.00;56.00;;;;;;5056474;28;19925;-59
2021/10/07 13:43:30;;;;;;;;;;;22.00;56.00;;;;;;5087890;28;19931;-60
2021/10/07 13:45:57;;;;;;;;;;;22.00;56.00;;;;;;5067034;28;19964;-59
2021/10/07 13:48:24;;;;;;;;;;;22.00;56.00;;;;;;5080235;28;19924;-59
2021/10/07 13:50:51;;;;;;;;;;;22.00;56.00;;;;;;5081527;28;19964;-58
2021/10/07 13:53:18;;;;;;;;;;;22.00;56.00;;;;;;5069561;28;19924;-59
2021/10/07 13:55:45;;;;;;;;;;;22.00;56.00;;;;;;5056147;28;19977;-58
2021/10/07 13:58:12;;;;;;;;;;;22.00;56.00;;;;;;5053941;28;20023;-59
2021/10/07 14:00:40;;;;;;;;;;;22.00;56.00;;;;;;5055121;28;19931;-58
2021/10/07 14:03:08;;;;;;;;;;;22.00;56.00;;;;;;5054482;28;19929;-58
2021/10/07 14:05:36;;;;;;;;;;;22.00;56.00;;;;;;5054972;28;20003;-57
2021/10/07 14:08:07;;;;;;;;;;;22.00;56.00;;;;;;5070690;28;19978;-58
2021/10/07 14:10:35;;;;;;;;;;;22.00;56.00;;;;;;5072745;28;20345;-59
2021/10/07 14:13:04;;;;;;;;;;;22.00;56.00;;;;;;5072209;28;19924;-58
2021/10/07 14:15:31;;;;;;;;;;;22.00;56.00;;;;;;5072506;28;20551;-59
2021/10/07 14:17:59;;;;;;;;;;;22.00;56.00;;;;;;5070209;28;20318;-59
2021/10/07 14:20:26;;;;;;;;;;;22.00;56.00;;;;;;5072858;28;19924;-59
2021/10/07 14:22:54;;;;;;;;;;;22.00;56.00;;;;;;5076101;28;19924;-57
2021/10/07 14:25:21;;;;;;;;;;;22.00;56.00;;;;;;5074549;28;19968;-59
2021/10/07 14:27:49;;;;;;;;;;;22.00;56.00;;;;;;5075118;28;19928;-56